sensor_id;sensor_type;location;lat;lon;timestamp;P1;durP1;ratioP1;P2;durP2;ratioP2
55915;SDS011;41826;53.246;-6.670;2023-09-19T00:01:05;14.00;;;2.50;;
55915;SDS011;41826;53.246;-6.670;2023-09-19T00:03:33;9.82;;;2.30;;
55915;SDS011;41826;53.246;-6.670;2023-09-19T00:06:02;11.48;;;1.92;;
55915;SDS011;41826;53.246;-6.670;2023-09-19T00:08:28;20.67;;;2.55;;
55915;SDS011;41826;53.246;-6.670;2023-09-19T00:10:53;14.77;;;2.83;;
55915;SDS011;41826;53.246;-6.670;2023-09-19T00:13:19;16.15;;;2.10;;
55915;SDS011;41826;53.246;-6.670;2023-09-19T00:15:46;16.88;;;2.30;;
55915;SDS011;41826;53.246;-6.670;2023-09-19T00:18:15;16.92;;;2.15;;
55915;SDS011;41826;53.246;-6.670;2023-09-19T00:20:43;11.20;;;2.30;;
55915;SDS011;41826;53.246;-6.670;2023-09-19T00:23:12;13.52;;;2.50;;
55915;SDS011;41826;53.246;-6.670;2023-09-19T00:25:38;14.95;;;2.30;;
55915;SDS011;41826;53.246;-6.670;2023-09-19T00:28:05;8.95;;;1.60;;
55915;SDS011;41826;53.246;-6.670;2023-09-19T00:30:32;12.15;;;2.42;;
55915;SDS011;41826;53.246;-6.670;2023-09-19T00:32:58;15.38;;;2.13;;
55915;SDS011;41826;53.246;-6.670;2023-09-19T00:35:23;7.20;;;1.63;;
55915;SDS011;41826;53.246;-6.670;2023-09-19T00:37:49;12.07;;;2.03;;
55915;SDS011;41826;53.246;-6.670;2023-09-19T00:40:15;13.57;;;2.40;;
55915;SDS011;41826;53.246;-6.670;2023-09-19T00:42:42;11.43;;;2.25;;
55915;SDS011;41826;53.246;-6.670;2023-09-19T00:45:08;11.30;;;2.08;;
55915;SDS011;41826;53.246;-6.670;2023-09-19T00:47:48;10.00;;;1.73;;
55915;SDS011;41826;53.246;-6.670;2023-09-19T00:50:15;17.08;;;1.80;;
55915;SDS011;41826;53.246;-6.670;2023-09-19T00:52:44;8.88;;;1.38;;
55915;SDS011;41826;53.246;-6.670;2023-09-19T00:55:11;6.65;;;1.33;;
55915;SDS011;41826;53.246;-6.670;2023-09-19T00:57:41;12.80;;;2.05;;
55915;SDS011;41826;53.246;-6.670;2023-09-19T01:00:07;14.48;;;1.98;;
55915;SDS011;41826;53.246;-6.670;2023-09-19T01:02:37;13.02;;;1.63;;
55915;SDS011;41826;53.246;-6.670;2023-09-19T01:05:03;15.27;;;2.13;;
55915;SDS011;41826;53.246;-6.670;2023-09-19T01:07:32;13.07;;;2.22;;
55915;SDS011;41826;53.246;-6.670;2023-09-19T01:10:02;5.88;;;1.33;;
55915;SDS011;41826;53.246;-6.670;2023-09-19T01:12:56;7.78;;;1.33;;
55915;SDS011;41826;53.246;-6.670;2023-09-19T01:15:28;11.07;;;1.70;;
55915;SDS011;41826;53.246;-6.670;2023-09-19T01:26:04;11.35;;;1.63;;
55915;SDS011;41826;53.246;-6.670;2023-09-19T01:28:53;9.95;;;2.00;;
55915;SDS011;41826;53.246;-6.670;2023-09-19T01:31:28;15.85;;;1.95;;
55915;SDS011;41826;53.246;-6.670;2023-09-19T01:34:00;12.30;;;2.05;;
55915;SDS011;41826;53.246;-6.670;2023-09-19T01:36:33;8.20;;;1.35;;
55915;SDS011;41826;53.246;-6.670;2023-09-19T01:39:01;12.00;;;1.98;;
55915;SDS011;41826;53.246;-6.670;2023-09-19T01:44:06;9.32;;;1.30;;
55915;SDS011;41826;53.246;-6.670;2023-09-19T01:46:38;7.55;;;1.50;;
55915;SDS011;41826;53.246;-6.670;2023-09-19T01:54:16;10.98;;;1.75;;
55915;SDS011;41826;53.246;-6.670;2023-09-19T01:59:50;15.23;;;2.33;;
55915;SDS011;41826;53.246;-6.670;2023-09-19T02:02:22;10.10;;;2.65;;
55915;SDS011;41826;53.246;-6.670;2023-09-19T02:04:48;10.23;;;1.50;;
55915;SDS011;41826;53.246;-6.670;2023-09-19T02:07:15;10.00;;;1.48;;
55915;SDS011;41826;53.246;-6.670;2023-09-19T02:09:41;10.98;;;1.73;;
55915;SDS011;41826;53.246;-6.670;2023-09-19T02:12:08;7.95;;;1.52;;
55915;SDS011;41826;53.246;-6.670;2023-09-19T02:14:34;13.40;;;1.58;;
55915;SDS011;41826;53.246;-6.670;2023-09-19T02:17:01;8.07;;;1.42;;
55915;SDS011;41826;53.246;-6.670;2023-09-19T02:19:28;9.98;;;1.83;;
55915;SDS011;41826;53.246;-6.670;2023-09-19T02:21:55;7.20;;;1.40;;
55915;SDS011;41826;53.246;-6.670;2023-09-19T02:24:20;6.93;;;1.25;;
55915;SDS011;41826;53.246;-6.670;2023-09-19T02:26:46;8.18;;;1.90;;
55915;SDS011;41826;53.246;-6.670;2023-09-19T02:29:12;6.05;;;1.75;;
55915;SDS011;41826;53.246;-6.670;2023-09-19T02:31:38;9.63;;;1.70;;
55915;SDS011;41826;53.246;-6.670;2023-09-19T02:34:04;9.88;;;2.60;;
55915;SDS011;41826;53.246;-6.670;2023-09-19T02:36:31;15.00;;;2.65;;
55915;SDS011;41826;53.246;-6.670;2023-09-19T02:38:57;14.38;;;3.22;;
55915;SDS011;41826;53.246;-6.670;2023-09-19T02:41:22;11.82;;;2.22;;
55915;SDS011;41826;53.246;-6.670;2023-09-19T02:43:47;13.55;;;1.90;;
55915;SDS011;41826;53.246;-6.670;2023-09-19T02:46:13;16.15;;;2.10;;
55915;SDS011;41826;53.246;-6.670;2023-09-19T02:48:38;13.60;;;2.10;;
55915;SDS011;41826;53.246;-6.670;2023-09-19T02:51:04;15.18;;;1.80;;
55915;SDS011;41826;53.246;-6.670;2023-09-19T02:53:30;11.32;;;2.40;;
55915;SDS011;41826;53.246;-6.670;2023-09-19T02:55:56;9.15;;;1.67;;
55915;SDS011;41826;53.246;-6.670;2023-09-19T02:58:23;6.05;;;1.63;;
55915;SDS011;41826;53.246;-6.670;2023-09-19T03:00:49;12.07;;;1.58;;
55915;SDS011;41826;53.246;-6.670;2023-09-19T03:03:16;7.20;;;1.90;;
55915;SDS011;41826;53.246;-6.670;2023-09-19T03:05:42;6.35;;;1.92;;
55915;SDS011;41826;53.246;-6.670;2023-09-19T03:08:12;9.40;;;1.92;;
55915;SDS011;41826;53.246;-6.670;2023-09-19T03:10:39;7.30;;;1.70;;
55915;SDS011;41826;53.246;-6.670;2023-09-19T03:13:05;7.63;;;2.13;;
55915;SDS011;41826;53.246;-6.670;2023-09-19T03:15:34;4.82;;;1.40;;
55915;SDS011;41826;53.246;-6.670;2023-09-19T03:18:03;6.75;;;1.80;;
55915;SDS011;41826;53.246;-6.670;2023-09-19T03:20:29;8.05;;;2.63;;
55915;SDS011;41826;53.246;-6.670;2023-09-19T03:22:55;5.30;;;1.42;;
55915;SDS011;41826;53.246;-6.670;2023-09-19T03:25:22;8.57;;;1.80;;
55915;SDS011;41826;53.246;-6.670;2023-09-19T03:27:47;6.43;;;2.00;;
55915;SDS011;41826;53.246;-6.670;2023-09-19T03:30:13;3.50;;;1.50;;
55915;SDS011;41826;53.246;-6.670;2023-09-19T03:32:47;7.22;;;2.03;;
55915;SDS011;41826;53.246;-6.670;2023-09-19T03:35:14;9.00;;;2.05;;
55915;SDS011;41826;53.246;-6.670;2023-09-19T03:37:41;7.78;;;1.83;;
55915;SDS011;41826;53.246;-6.670;2023-09-19T03:40:08;10.18;;;2.45;;
55915;SDS011;41826;53.246;-6.670;2023-09-19T03:42:37;6.50;;;1.85;;
55915;SDS011;41826;53.246;-6.670;2023-09-19T03:45:03;7.32;;;1.40;;
55915;SDS011;41826;53.246;-6.670;2023-09-19T03:47:30;6.55;;;2.38;;
55915;SDS011;41826;53.246;-6.670;2023-09-19T03:49:56;5.03;;;1.80;;
55915;SDS011;41826;53.246;-6.670;2023-09-19T03:52:21;7.13;;;2.28;;
55915;SDS011;41826;53.246;-6.670;2023-09-19T03:54:46;5.30;;;1.80;;
55915;SDS011;41826;53.246;-6.670;2023-09-19T03:57:12;4.57;;;1.83;;
55915;SDS011;41826;53.246;-6.670;2023-09-19T03:59:40;7.78;;;1.98;;
55915;SDS011;41826;53.246;-6.670;2023-09-19T04:02:07;6.78;;;1.88;;
55915;SDS011;41826;53.246;-6.670;2023-09-19T04:04:36;4.97;;;1.90;;
55915;SDS011;41826;53.246;-6.670;2023-09-19T04:07:02;9.85;;;2.03;;
55915;SDS011;41826;53.246;-6.670;2023-09-19T04:09:27;4.75;;;1.50;;
55915;SDS011;41826;53.246;-6.670;2023-09-19T04:11:53;9.25;;;2.00;;
55915;SDS011;41826;53.246;-6.670;2023-09-19T04:14:18;7.40;;;2.33;;
55915;SDS011;41826;53.246;-6.670;2023-09-19T04:16:43;5.32;;;1.70;;
55915;SDS011;41826;53.246;-6.670;2023-09-19T04:19:09;5.95;;;1.83;;
55915;SDS011;41826;53.246;-6.670;2023-09-19T04:21:34;6.85;;;1.95;;
55915;SDS011;41826;53.246;-6.670;2023-09-19T04:24:00;8.23;;;1.80;;
55915;SDS011;41826;53.246;-6.670;2023-09-19T04:26:25;4.85;;;1.48;;
55915;SDS011;41826;53.246;-6.670;2023-09-19T04:28:51;5.25;;;1.70;;
55915;SDS011;41826;53.246;-6.670;2023-09-19T04:31:16;7.10;;;1.83;;
55915;SDS011;41826;53.246;-6.670;2023-09-19T04:33:43;6.72;;;1.60;;
55915;SDS011;41826;53.246;-6.670;2023-09-19T04:36:08;5.97;;;1.50;;
55915;SDS011;41826;53.246;-6.670;2023-09-19T04:38:34;7.57;;;1.90;;
55915;SDS011;41826;53.246;-6.670;2023-09-19T04:41:00;5.15;;;1.20;;
55915;SDS011;41826;53.246;-6.670;2023-09-19T04:43:25;5.55;;;1.23;;
55915;SDS011;41826;53.246;-6.670;2023-09-19T04:45:51;3.30;;;0.95;;
55915;SDS011;41826;53.246;-6.670;2023-09-19T04:48:21;1.67;;;1.10;;
55915;SDS011;41826;53.246;-6.670;2023-09-19T04:50:49;5.85;;;1.10;;
55915;SDS011;41826;53.246;-6.670;2023-09-19T04:53:14;2.22;;;0.75;;
55915;SDS011;41826;53.246;-6.670;2023-09-19T04:55:39;1.60;;;0.80;;
55915;SDS011;41826;53.246;-6.670;2023-09-19T04:58:05;2.00;;;0.73;;
55915;SDS011;41826;53.246;-6.670;2023-09-19T05:00:30;3.58;;;1.00;;
55915;SDS011;41826;53.246;-6.670;2023-09-19T05:03:00;3.97;;;1.08;;
55915;SDS011;41826;53.246;-6.670;2023-09-19T05:05:26;1.55;;;0.75;;
55915;SDS011;41826;53.246;-6.670;2023-09-19T05:07:51;4.03;;;0.85;;
55915;SDS011;41826;53.246;-6.670;2023-09-19T05:10:18;4.70;;;0.55;;
55915;SDS011;41826;53.246;-6.670;2023-09-19T05:12:44;1.48;;;0.60;;
55915;SDS011;41826;53.246;-6.670;2023-09-19T05:15:12;2.58;;;0.70;;
55915;SDS011;41826;53.246;-6.670;2023-09-19T05:17:37;0.60;;;0.50;;
55915;SDS011;41826;53.246;-6.670;2023-09-19T05:20:04;1.58;;;0.50;;
55915;SDS011;41826;53.246;-6.670;2023-09-19T05:22:40;0.30;;;0.30;;
55915;SDS011;41826;53.246;-6.670;2023-09-19T05:25:06;1.55;;;0.45;;
55915;SDS011;41826;53.246;-6.670;2023-09-19T05:27:32;1.15;;;0.40;;
55915;SDS011;41826;53.246;-6.670;2023-09-19T05:29:58;2.88;;;0.50;;
55915;SDS011;41826;53.246;-6.670;2023-09-19T05:32:24;0.50;;;0.45;;
55915;SDS011;41826;53.246;-6.670;2023-09-19T05:34:49;6.15;;;0.50;;
55915;SDS011;41826;53.246;-6.670;2023-09-19T05:37:18;1.92;;;0.30;;
55915;SDS011;41826;53.246;-6.670;2023-09-19T05:39:44;0.75;;;0.52;;
55915;SDS011;41826;53.246;-6.670;2023-09-19T05:42:09;0.85;;;0.73;;
55915;SDS011;41826;53.246;-6.670;2023-09-19T05:44:34;1.17;;;0.20;;
55915;SDS011;41826;53.246;-6.670;2023-09-19T05:47:01;0.30;;;0.30;;
55915;SDS011;41826;53.246;-6.670;2023-09-19T05:49:29;0.30;;;0.30;;
55915;SDS011;41826;53.246;-6.670;2023-09-19T05:51:55;0.60;;;0.40;;
55915;SDS011;41826;53.246;-6.670;2023-09-19T05:54:24;1.50;;;0.63;;
55915;SDS011;41826;53.246;-6.670;2023-09-19T05:56:49;0.55;;;0.20;;
55915;SDS011;41826;53.246;-6.670;2023-09-19T05:59:18;0.30;;;0.30;;
55915;SDS011;41826;53.246;-6.670;2023-09-19T06:01:44;0.50;;;0.40;;
55915;SDS011;41826;53.246;-6.670;2023-09-19T06:04:10;0.50;;;0.32;;
55915;SDS011;41826;53.246;-6.670;2023-09-19T06:06:35;0.30;;;0.20;;
55915;SDS011;41826;53.246;-6.670;2023-09-19T06:09:04;1.73;;;0.30;;
55915;SDS011;41826;53.246;-6.670;2023-09-19T06:11:30;2.97;;;0.38;;
55915;SDS011;41826;53.246;-6.670;2023-09-19T06:13:59;0.43;;;0.30;;
55915;SDS011;41826;53.246;-6.670;2023-09-19T06:16:25;0.22;;;0.13;;
55915;SDS011;41826;53.246;-6.670;2023-09-19T06:18:51;1.00;;;0.30;;
55915;SDS011;41826;53.246;-6.670;2023-09-19T06:21:18;2.47;;;0.30;;
55915;SDS011;41826;53.246;-6.670;2023-09-19T06:23:43;2.63;;;0.25;;
55915;SDS011;41826;53.246;-6.670;2023-09-19T06:26:08;0.20;;;0.20;;
55915;SDS011;41826;53.246;-6.670;2023-09-19T06:28:34;1.65;;;0.30;;
55915;SDS011;41826;53.246;-6.670;2023-09-19T06:31:01;0.20;;;0.20;;
55915;SDS011;41826;53.246;-6.670;2023-09-19T06:33:27;0.30;;;0.20;;
55915;SDS011;41826;53.246;-6.670;2023-09-19T06:35:53;0.30;;;0.30;;
55915;SDS011;41826;53.246;-6.670;2023-09-19T06:38:24;1.50;;;0.30;;
55915;SDS011;41826;53.246;-6.670;2023-09-19T06:40:49;0.30;;;0.30;;
55915;SDS011;41826;53.246;-6.670;2023-09-19T06:43:15;0.20;;;0.20;;
55915;SDS011;41826;53.246;-6.670;2023-09-19T06:45:40;0.20;;;0.20;;
55915;SDS011;41826;53.246;-6.670;2023-09-19T06:48:05;0.43;;;0.20;;
55915;SDS011;41826;53.246;-6.670;2023-09-19T06:50:31;0.20;;;0.20;;
55915;SDS011;41826;53.246;-6.670;2023-09-19T06:52:59;0.20;;;0.20;;
55915;SDS011;41826;53.246;-6.670;2023-09-19T06:55:25;0.40;;;0.38;;
55915;SDS011;41826;53.246;-6.670;2023-09-19T06:57:53;1.35;;;0.30;;
55915;SDS011;41826;53.246;-6.670;2023-09-19T07:00:21;0.40;;;0.20;;
55915;SDS011;41826;53.246;-6.670;2023-09-19T07:03:01;0.50;;;0.30;;
55915;SDS011;41826;53.246;-6.670;2023-09-19T07:05:33;0.35;;;0.20;;
55915;SDS011;41826;53.246;-6.670;2023-09-19T07:08:02;0.68;;;0.30;;
55915;SDS011;41826;53.246;-6.670;2023-09-19T07:10:28;0.40;;;0.20;;
55915;SDS011;41826;53.246;-6.670;2023-09-19T07:13:03;0.20;;;0.20;;
55915;SDS011;41826;53.246;-6.670;2023-09-19T07:15:34;0.38;;;0.22;;
55915;SDS011;41826;53.246;-6.670;2023-09-19T07:18:05;1.25;;;0.28;;
55915;SDS011;41826;53.246;-6.670;2023-09-19T07:20:31;0.28;;;0.20;;
55915;SDS011;41826;53.246;-6.670;2023-09-19T07:22:58;0.17;;;0.17;;
55915;SDS011;41826;53.246;-6.670;2023-09-19T07:25:29;0.20;;;0.20;;
55915;SDS011;41826;53.246;-6.670;2023-09-19T07:27:55;0.57;;;0.40;;
55915;SDS011;41826;53.246;-6.670;2023-09-19T07:30:21;0.90;;;0.20;;
55915;SDS011;41826;53.246;-6.670;2023-09-19T07:32:47;0.90;;;0.30;;
55915;SDS011;41826;53.246;-6.670;2023-09-19T07:35:13;0.68;;;0.30;;
55915;SDS011;41826;53.246;-6.670;2023-09-19T07:37:40;1.30;;;0.20;;
55915;SDS011;41826;53.246;-6.670;2023-09-19T07:40:06;0.28;;;0.28;;
55915;SDS011;41826;53.246;-6.670;2023-09-19T07:42:34;0.20;;;0.20;;
55915;SDS011;41826;53.246;-6.670;2023-09-19T07:45:01;0.20;;;0.20;;
55915;SDS011;41826;53.246;-6.670;2023-09-19T07:47:28;0.40;;;0.20;;
55915;SDS011;41826;53.246;-6.670;2023-09-19T07:49:55;1.45;;;0.38;;
55915;SDS011;41826;53.246;-6.670;2023-09-19T07:52:20;0.30;;;0.20;;
55915;SDS011;41826;53.246;-6.670;2023-09-19T07:54:47;0.38;;;0.30;;
55915;SDS011;41826;53.246;-6.670;2023-09-19T07:57:14;0.32;;;0.20;;
55915;SDS011;41826;53.246;-6.670;2023-09-19T07:59:40;0.20;;;0.20;;
55915;SDS011;41826;53.246;-6.670;2023-09-19T08:02:07;1.13;;;0.30;;
55915;SDS011;41826;53.246;-6.670;2023-09-19T08:04:34;1.30;;;0.20;;
55915;SDS011;41826;53.246;-6.670;2023-09-19T08:07:00;0.50;;;0.25;;
55915;SDS011;41826;53.246;-6.670;2023-09-19T08:09:28;0.30;;;0.30;;
55915;SDS011;41826;53.246;-6.670;2023-09-19T08:11:58;0.30;;;0.30;;
55915;SDS011;41826;53.246;-6.670;2023-09-19T08:14:23;0.30;;;0.30;;
55915;SDS011;41826;53.246;-6.670;2023-09-19T08:16:50;1.35;;;0.40;;
55915;SDS011;41826;53.246;-6.670;2023-09-19T08:19:15;0.20;;;0.20;;
55915;SDS011;41826;53.246;-6.670;2023-09-19T08:21:40;1.27;;;0.28;;
55915;SDS011;41826;53.246;-6.670;2023-09-19T08:24:06;0.82;;;0.30;;
55915;SDS011;41826;53.246;-6.670;2023-09-19T08:26:32;1.02;;;0.30;;
55915;SDS011;41826;53.246;-6.670;2023-09-19T08:28:57;2.22;;;0.50;;
55915;SDS011;41826;53.246;-6.670;2023-09-19T08:31:23;0.73;;;0.30;;
55915;SDS011;41826;53.246;-6.670;2023-09-19T08:33:49;0.75;;;0.30;;
55915;SDS011;41826;53.246;-6.670;2023-09-19T08:36:16;0.80;;;0.20;;
55915;SDS011;41826;53.246;-6.670;2023-09-19T08:38:42;0.70;;;0.30;;
55915;SDS011;41826;53.246;-6.670;2023-09-19T08:41:07;0.50;;;0.30;;
55915;SDS011;41826;53.246;-6.670;2023-09-19T08:43:33;0.98;;;0.30;;
55915;SDS011;41826;53.246;-6.670;2023-09-19T08:48:33;0.50;;;0.30;;
55915;SDS011;41826;53.246;-6.670;2023-09-19T08:56:17;0.95;;;0.40;;
55915;SDS011;41826;53.246;-6.670;2023-09-19T08:59:02;0.30;;;0.30;;
55915;SDS011;41826;53.246;-6.670;2023-09-19T09:01:29;0.68;;;0.30;;
55915;SDS011;41826;53.246;-6.670;2023-09-19T09:03:57;0.40;;;0.30;;
55915;SDS011;41826;53.246;-6.670;2023-09-19T09:06:24;0.20;;;0.20;;
55915;SDS011;41826;53.246;-6.670;2023-09-19T09:08:51;2.83;;;0.20;;
55915;SDS011;41826;53.246;-6.670;2023-09-19T09:11:17;0.70;;;0.30;;
55915;SDS011;41826;53.246;-6.670;2023-09-19T09:13:43;3.35;;;0.38;;
55915;SDS011;41826;53.246;-6.670;2023-09-19T09:16:09;0.60;;;0.30;;
55915;SDS011;41826;53.246;-6.670;2023-09-19T09:18:35;2.38;;;0.38;;
55915;SDS011;41826;53.246;-6.670;2023-09-19T09:21:01;1.23;;;0.43;;
55915;SDS011;41826;53.246;-6.670;2023-09-19T09:23:29;1.83;;;0.40;;
55915;SDS011;41826;53.246;-6.670;2023-09-19T09:25:55;0.20;;;0.20;;
55915;SDS011;41826;53.246;-6.670;2023-09-19T09:28:27;0.70;;;0.30;;
55915;SDS011;41826;53.246;-6.670;2023-09-19T09:30:55;0.77;;;0.40;;
55915;SDS011;41826;53.246;-6.670;2023-09-19T09:33:23;0.85;;;0.40;;
55915;SDS011;41826;53.246;-6.670;2023-09-19T09:38:20;0.85;;;0.60;;
55915;SDS011;41826;53.246;-6.670;2023-09-19T09:40:50;1.88;;;0.47;;
55915;SDS011;41826;53.246;-6.670;2023-09-19T09:46:26;2.08;;;1.00;;
55915;SDS011;41826;53.246;-6.670;2023-09-19T09:51:38;2.13;;;0.50;;
55915;SDS011;41826;53.246;-6.670;2023-09-19T09:54:14;1.40;;;0.30;;
55915;SDS011;41826;53.246;-6.670;2023-09-19T09:56:53;0.28;;;0.28;;
55915;SDS011;41826;53.246;-6.670;2023-09-19T10:02:27;0.20;;;0.20;;
55915;SDS011;41826;53.246;-6.670;2023-09-19T10:04:57;0.20;;;0.20;;
55915;SDS011;41826;53.246;-6.670;2023-09-19T10:07:43;0.30;;;0.30;;
55915;SDS011;41826;53.246;-6.670;2023-09-19T10:10:32;0.20;;;0.20;;
55915;SDS011;41826;53.246;-6.670;2023-09-19T10:13:08;0.20;;;0.20;;
55915;SDS011;41826;53.246;-6.670;2023-09-19T10:15:46;0.45;;;0.30;;
55915;SDS011;41826;53.246;-6.670;2023-09-19T10:18:22;0.68;;;0.20;;
55915;SDS011;41826;53.246;-6.670;2023-09-19T10:20:49;2.45;;;0.20;;
55915;SDS011;41826;53.246;-6.670;2023-09-19T10:23:16;0.35;;;0.22;;
55915;SDS011;41826;53.246;-6.670;2023-09-19T10:25:54;0.30;;;0.30;;
55915;SDS011;41826;53.246;-6.670;2023-09-19T10:28:22;0.40;;;0.25;;
55915;SDS011;41826;53.246;-6.670;2023-09-19T10:30:52;1.95;;;0.47;;
55915;SDS011;41826;53.246;-6.670;2023-09-19T10:33:19;1.77;;;0.40;;
55915;SDS011;41826;53.246;-6.670;2023-09-19T10:35:47;0.63;;;0.30;;
55915;SDS011;41826;53.246;-6.670;2023-09-19T10:38:16;0.77;;;0.30;;
55915;SDS011;41826;53.246;-6.670;2023-09-19T10:40:51;0.70;;;0.30;;
55915;SDS011;41826;53.246;-6.670;2023-09-19T10:43:19;1.13;;;0.40;;
55915;SDS011;41826;53.246;-6.670;2023-09-19T10:45:49;1.58;;;0.30;;
55915;SDS011;41826;53.246;-6.670;2023-09-19T10:48:17;0.98;;;0.32;;
55915;SDS011;41826;53.246;-6.670;2023-09-19T10:51:09;0.63;;;0.30;;
55915;SDS011;41826;53.246;-6.670;2023-09-19T10:56:31;0.93;;;0.40;;
55915;SDS011;41826;53.246;-6.670;2023-09-19T11:07:08;2.20;;;0.50;;
55915;SDS011;41826;53.246;-6.670;2023-09-19T11:09:52;1.92;;;0.30;;
55915;SDS011;41826;53.246;-6.670;2023-09-19T11:14:54;2.38;;;0.40;;
55915;SDS011;41826;53.246;-6.670;2023-09-19T11:28:38;0.70;;;0.38;;
55915;SDS011;41826;53.246;-6.670;2023-09-19T11:30:48;0.35;;;0.28;;
55915;SDS011;41826;53.246;-6.670;2023-09-19T11:49:16;0.47;;;0.22;;
55915;SDS011;41826;53.246;-6.670;2023-09-19T11:51:48;0.55;;;0.20;;
55915;SDS011;41826;53.246;-6.670;2023-09-19T11:54:16;0.35;;;0.20;;
55915;SDS011;41826;53.246;-6.670;2023-09-19T11:56:52;1.83;;;0.40;;
55915;SDS011;41826;53.246;-6.670;2023-09-19T11:59:22;2.25;;;0.40;;
55915;SDS011;41826;53.246;-6.670;2023-09-19T12:01:53;0.38;;;0.30;;
55915;SDS011;41826;53.246;-6.670;2023-09-19T12:04:32;0.47;;;0.30;;
55915;SDS011;41826;53.246;-6.670;2023-09-19T12:06:58;0.95;;;0.28;;
55915;SDS011;41826;53.246;-6.670;2023-09-19T12:09:24;1.02;;;0.25;;
55915;SDS011;41826;53.246;-6.670;2023-09-19T12:11:50;0.20;;;0.20;;
55915;SDS011;41826;53.246;-6.670;2023-09-19T12:14:23;0.30;;;0.30;;
55915;SDS011;41826;53.246;-6.670;2023-09-19T12:16:53;1.05;;;0.30;;
55915;SDS011;41826;53.246;-6.670;2023-09-19T12:19:20;0.85;;;0.32;;
55915;SDS011;41826;53.246;-6.670;2023-09-19T12:21:59;0.60;;;0.43;;
55915;SDS011;41826;53.246;-6.670;2023-09-19T12:24:34;1.58;;;0.40;;
55915;SDS011;41826;53.246;-6.670;2023-09-19T12:27:03;0.30;;;0.20;;
55915;SDS011;41826;53.246;-6.670;2023-09-19T12:29:31;0.85;;;0.38;;
55915;SDS011;41826;53.246;-6.670;2023-09-19T12:31:57;0.80;;;0.30;;
55915;SDS011;41826;53.246;-6.670;2023-09-19T12:34:25;0.68;;;0.45;;
55915;SDS011;41826;53.246;-6.670;2023-09-19T12:37:12;2.90;;;0.40;;
55915;SDS011;41826;53.246;-6.670;2023-09-19T12:39:48;2.25;;;0.50;;
55915;SDS011;41826;53.246;-6.670;2023-09-19T12:42:20;1.08;;;0.47;;
55915;SDS011;41826;53.246;-6.670;2023-09-19T12:44:50;2.72;;;0.50;;
55915;SDS011;41826;53.246;-6.670;2023-09-19T12:47:25;1.98;;;0.60;;
55915;SDS011;41826;53.246;-6.670;2023-09-19T12:50:05;0.60;;;0.50;;
55915;SDS011;41826;53.246;-6.670;2023-09-19T12:55:47;2.40;;;0.80;;
55915;SDS011;41826;53.246;-6.670;2023-09-19T13:03:26;1.60;;;0.70;;
55915;SDS011;41826;53.246;-6.670;2023-09-19T13:05:57;2.05;;;0.50;;
55915;SDS011;41826;53.246;-6.670;2023-09-19T13:08:35;1.73;;;0.50;;
55915;SDS011;41826;53.246;-6.670;2023-09-19T13:11:10;0.60;;;0.40;;
55915;SDS011;41826;53.246;-6.670;2023-09-19T13:13:40;1.27;;;0.40;;
55915;SDS011;41826;53.246;-6.670;2023-09-19T13:16:14;1.17;;;0.40;;
55915;SDS011;41826;53.246;-6.670;2023-09-19T13:18:45;0.93;;;0.30;;
55915;SDS011;41826;53.246;-6.670;2023-09-19T13:21:34;0.30;;;0.30;;
55915;SDS011;41826;53.246;-6.670;2023-09-19T13:24:18;1.58;;;0.40;;
55915;SDS011;41826;53.246;-6.670;2023-09-19T13:26:50;2.08;;;0.40;;
55915;SDS011;41826;53.246;-6.670;2023-09-19T13:29:16;0.43;;;0.30;;
55915;SDS011;41826;53.246;-6.670;2023-09-19T13:31:49;1.77;;;0.40;;
55915;SDS011;41826;53.246;-6.670;2023-09-19T13:34:16;1.85;;;0.43;;
55915;SDS011;41826;53.246;-6.670;2023-09-19T13:36:42;1.23;;;0.30;;
55915;SDS011;41826;53.246;-6.670;2023-09-19T13:39:08;0.65;;;0.28;;
55915;SDS011;41826;53.246;-6.670;2023-09-19T13:41:34;2.25;;;0.40;;
55915;SDS011;41826;53.246;-6.670;2023-09-19T13:44:01;2.13;;;0.50;;
55915;SDS011;41826;53.246;-6.670;2023-09-19T13:46:27;1.70;;;0.40;;
55915;SDS011;41826;53.246;-6.670;2023-09-19T13:48:53;1.60;;;0.50;;
55915;SDS011;41826;53.246;-6.670;2023-09-19T13:51:24;1.35;;;1.15;;
55915;SDS011;41826;53.246;-6.670;2023-09-19T13:53:51;1.38;;;0.40;;
55915;SDS011;41826;53.246;-6.670;2023-09-19T13:56:16;2.17;;;0.50;;
55915;SDS011;41826;53.246;-6.670;2023-09-19T13:58:42;1.90;;;0.50;;
55915;SDS011;41826;53.246;-6.670;2023-09-19T14:01:07;1.95;;;0.52;;
55915;SDS011;41826;53.246;-6.670;2023-09-19T14:03:37;2.65;;;0.60;;
55915;SDS011;41826;53.246;-6.670;2023-09-19T14:06:04;1.95;;;0.40;;
55915;SDS011;41826;53.246;-6.670;2023-09-19T14:08:30;1.33;;;0.45;;
55915;SDS011;41826;53.246;-6.670;2023-09-19T14:10:55;3.30;;;0.55;;
55915;SDS011;41826;53.246;-6.670;2023-09-19T14:13:21;0.73;;;0.55;;
55915;SDS011;41826;53.246;-6.670;2023-09-19T14:15:46;1.27;;;0.40;;
55915;SDS011;41826;53.246;-6.670;2023-09-19T14:18:12;3.45;;;0.57;;
55915;SDS011;41826;53.246;-6.670;2023-09-19T14:20:38;2.28;;;0.80;;
55915;SDS011;41826;53.246;-6.670;2023-09-19T14:23:07;2.33;;;0.60;;
55915;SDS011;41826;53.246;-6.670;2023-09-19T14:25:35;4.28;;;0.70;;
55915;SDS011;41826;53.246;-6.670;2023-09-19T14:28:01;2.50;;;0.70;;
55915;SDS011;41826;53.246;-6.670;2023-09-19T14:30:27;2.28;;;0.65;;
55915;SDS011;41826;53.246;-6.670;2023-09-19T14:32:52;5.15;;;1.10;;
55915;SDS011;41826;53.246;-6.670;2023-09-19T14:35:18;7.15;;;1.30;;
55915;SDS011;41826;53.246;-6.670;2023-09-19T14:37:44;7.38;;;1.38;;
55915;SDS011;41826;53.246;-6.670;2023-09-19T14:40:10;8.52;;;1.63;;
55915;SDS011;41826;53.246;-6.670;2023-09-19T14:42:39;7.63;;;1.70;;
55915;SDS011;41826;53.246;-6.670;2023-09-19T14:45:04;9.27;;;1.50;;
55915;SDS011;41826;53.246;-6.670;2023-09-19T14:47:31;13.68;;;1.90;;
55915;SDS011;41826;53.246;-6.670;2023-09-19T14:50:02;6.63;;;2.00;;
55915;SDS011;41826;53.246;-6.670;2023-09-19T14:52:34;6.10;;;1.67;;
55915;SDS011;41826;53.246;-6.670;2023-09-19T14:55:01;9.40;;;1.67;;
55915;SDS011;41826;53.246;-6.670;2023-09-19T14:57:26;8.55;;;2.05;;
55915;SDS011;41826;53.246;-6.670;2023-09-19T14:59:52;8.55;;;1.88;;
55915;SDS011;41826;53.246;-6.670;2023-09-19T15:02:17;7.97;;;1.70;;
55915;SDS011;41826;53.246;-6.670;2023-09-19T15:04:44;7.95;;;1.73;;
55915;SDS011;41826;53.246;-6.670;2023-09-19T15:07:11;6.78;;;1.65;;
55915;SDS011;41826;53.246;-6.670;2023-09-19T15:09:37;7.53;;;1.73;;
55915;SDS011;41826;53.246;-6.670;2023-09-19T15:12:03;9.70;;;1.92;;
55915;SDS011;41826;53.246;-6.670;2023-09-19T15:14:28;8.68;;;1.50;;
55915;SDS011;41826;53.246;-6.670;2023-09-19T15:16:54;9.00;;;1.90;;
55915;SDS011;41826;53.246;-6.670;2023-09-19T15:19:20;9.13;;;2.22;;
55915;SDS011;41826;53.246;-6.670;2023-09-19T15:21:47;9.88;;;2.97;;
55915;SDS011;41826;53.246;-6.670;2023-09-19T15:24:13;10.60;;;1.92;;
55915;SDS011;41826;53.246;-6.670;2023-09-19T15:26:38;10.38;;;2.25;;
55915;SDS011;41826;53.246;-6.670;2023-09-19T15:29:07;10.45;;;2.33;;
55915;SDS011;41826;53.246;-6.670;2023-09-19T15:31:33;11.23;;;1.80;;
55915;SDS011;41826;53.246;-6.670;2023-09-19T15:33:58;8.48;;;1.83;;
55915;SDS011;41826;53.246;-6.670;2023-09-19T15:36:24;9.57;;;1.98;;
55915;SDS011;41826;53.246;-6.670;2023-09-19T15:41:15;9.05;;;1.67;;
55915;SDS011;41826;53.246;-6.670;2023-09-19T15:43:41;8.93;;;1.60;;
55915;SDS011;41826;53.246;-6.670;2023-09-19T15:46:06;7.22;;;1.55;;
55915;SDS011;41826;53.246;-6.670;2023-09-19T15:48:32;4.90;;;1.10;;
55915;SDS011;41826;53.246;-6.670;2023-09-19T15:51:02;4.55;;;1.10;;
55915;SDS011;41826;53.246;-6.670;2023-09-19T15:53:29;5.82;;;1.10;;
55915;SDS011;41826;53.246;-6.670;2023-09-19T15:56:08;4.43;;;1.15;;
55915;SDS011;41826;53.246;-6.670;2023-09-19T15:58:33;5.85;;;1.73;;
55915;SDS011;41826;53.246;-6.670;2023-09-19T16:01:04;4.30;;;0.88;;
55915;SDS011;41826;53.246;-6.670;2023-09-19T16:03:31;1.92;;;0.82;;
55915;SDS011;41826;53.246;-6.670;2023-09-19T16:05:56;7.10;;;1.38;;
55915;SDS011;41826;53.246;-6.670;2023-09-19T16:08:21;5.00;;;0.90;;